Time;durP1;ratioP1;P1;durP2;ratioP2;P2;SDS_P1;SDS_P2;PMS_P1;PMS_P2;Temp;Humidity;BMP_temperature;BMP_pressure;BME280_temperature;BME280_humidity;BME280_pressure;Samples;Min_cycle;Max_cycle;Signal;HPM_P1;HPM_P2
2023/04/19 00:01:04;;;;;;;7.30;5.50;;;;;;;9.52;90.52;101077.23;105788;1259;98480;-79
2023/04/19 00:03:50;;;;;;;9.40;6.10;;;;;;;9.47;90.74;101073.94;105671;1263;101343;-80
2023/04/19 00:06:36;;;;;;;7.80;5.20;;;;;;;9.45;90.65;101068.73;106357;1257;100141;-79
2023/04/19 00:09:21;;;;;;;6.70;5.20;;;;;;;9.39;90.35;101071.34;106277;1257;98980;-79
2023/04/19 00:12:08;;;;;;;6.80;4.60;;;;;;;9.33;90.49;101072.67;105749;1257;98067;-80
2023/04/19 00:14:53;;;;;;;6.20;5.20;;;;;;;9.28;90.66;101074.38;105831;1256;97889;-80
2023/04/19 00:17:39;;;;;;;6.40;4.70;;;;;;;9.24;90.59;101067.75;105851;1260;102701;-80
2023/04/19 00:20:24;;;;;;;6.20;4.60;;;;;;;9.20;91.09;101069.30;106530;1258;100345;-80
2023/04/19 00:23:10;;;;;;;7.10;4.40;;;;;;;9.19;91.11;101068.19;105924;1257;98970;-79
2023/04/19 00:25:55;;;;;;;7.90;5.00;;;;;;;9.15;91.07;101063.44;105807;1261;98139;-79
2023/04/19 00:28:41;;;;;;;4.80;3.90;;;;;;;9.12;91.32;101058.90;106471;1258;98493;-79
2023/04/19 00:31:28;;;;;;;5.90;4.20;;;;;;;9.10;91.39;101057.94;105651;1260;102757;-80
2023/04/19 00:34:13;;;;;;;6.10;4.50;;;;;;;9.07;91.43;101054.09;105605;1257;100232;-81
2023/04/19 00:36:59;;;;;;;5.20;4.00;;;;;;;9.06;91.51;101053.72;106493;1260;98992;-84
2023/04/19 00:39:44;;;;;;;8.40;4.80;;;;;;;9.04;91.68;101053.63;106506;1257;96487;-82
2023/04/19 00:42:30;;;;;;;7.80;4.40;;;;;;;9.02;91.72;101057.36;105851;1263;98459;-80
2023/04/19 00:45:15;;;;;;;5.30;4.20;;;;;;;9.00;91.82;101053.78;106276;1257;101300;-81
2023/04/19 00:48:01;;;;;;;6.80;4.20;;;;;;;8.98;92.09;101051.56;106381;1257;99173;-81
2023/04/19 00:50:46;;;;;;;6.80;4.40;;;;;;;8.96;92.46;101048.56;106178;1260;98992;-80
2023/04/19 00:53:33;;;;;;;4.40;3.70;;;;;;;8.93;92.53;101045.02;106411;1257;97898;-78
2023/04/19 00:56:21;;;;;;;8.50;5.30;;;;;;;8.89;92.79;101046.32;106362;1260;98477;-79
2023/04/19 00:59:07;;;;;;;7.70;4.80;;;;;;;8.83;93.01;101041.77;105809;1257;102040;-82
2023/04/19 01:01:53;;;;;;;5.80;4.90;;;;;;;8.81;93.25;101041.86;106486;1260;99070;-80
2023/04/19 01:04:39;;;;;;;6.90;5.10;;;;;;;8.80;93.65;101042.47;106098;1257;98744;-79
2023/04/19 01:07:25;;;;;;;7.10;4.60;;;;;;;8.78;93.72;101039.70;105584;1257;97935;-80
2023/04/19 01:10:11;;;;;;;7.00;5.40;;;;;;;8.74;93.92;101036.71;105542;1257;98424;-79
2023/04/19 01:12:56;;;;;;;7.10;5.00;;;;;;;8.72;94.27;101030.50;105609;1257;102114;-79
2023/04/19 01:15:43;;;;;;;7.50;5.00;;;;;;;8.69;94.35;101029.59;106195;1257;100423;-79
2023/04/19 01:18:34;;;;;;;7.10;5.80;;;;;;;8.67;94.61;101025.78;105727;1257;99361;-78
2023/04/19 01:21:21;;;;;;;6.60;5.40;;;;;;;8.65;94.65;101020.17;105442;1264;98021;-80
2023/04/19 01:24:07;;;;;;;4.90;4.20;;;;;;;8.62;94.67;101015.63;106001;1258;98839;-79
2023/04/19 01:26:52;;;;;;;7.80;5.80;;;;;;;8.56;94.56;101016.91;105579;1258;101315;-79
2023/04/19 01:29:39;;;;;;;12.80;5.60;;;;;;;8.51;94.86;101016.77;105774;1261;99104;-79
2023/04/19 01:32:25;;;;;;;7.90;5.20;;;;;;;8.46;94.80;101012.33;105551;1261;98854;-80
2023/04/19 01:35:11;;;;;;;9.10;5.90;;;;;;;8.43;94.61;101008.94;106456;1258;98060;-82
2023/04/19 01:37:56;;;;;;;9.10;6.50;;;;;;;8.40;94.98;101006.02;106274;1258;97892;-80
2023/04/19 01:40:43;;;;;;;7.90;6.10;;;;;;;8.39;95.05;101003.29;105676;1260;102582;-79
2023/04/19 01:43:29;;;;;;;8.10;5.80;;;;;;;8.38;94.87;101006.98;105617;1258;100447;-79
2023/04/19 01:46:14;;;;;;;8.00;5.20;;;;;;;8.37;94.92;101001.41;105845;1256;98100;-82
2023/04/19 01:49:00;;;;;;;8.90;5.80;;;;;;;8.35;95.00;100993.74;106517;1257;99237;-80
2023/04/19 01:51:45;;;;;;;7.20;5.60;;;;;;;8.35;95.02;100991.54;106223;1258;97985;-79
2023/04/19 01:54:31;;;;;;;8.40;5.80;;;;;;;8.33;94.75;100987.42;105375;1261;101431;-80
2023/04/19 01:57:17;;;;;;;8.00;6.20;;;;;;;8.27;94.74;100983.58;105548;1257;99171;-79
2023/04/19 02:00:03;;;;;;;7.50;6.10;;;;;;;8.21;94.65;100980.46;105519;1262;98437;-79
2023/04/19 02:02:59;;;;;;;7.50;5.90;;;;;;;8.18;94.69;100977.41;106336;1256;99126;-80
2023/04/19 02:05:45;;;;;;;7.70;5.80;;;;;;;8.15;94.74;100978.13;106107;1260;98426;-80
2023/04/19 02:08:31;;;;;;;8.50;6.30;;;;;;;8.12;94.84;100977.19;106202;1260;101347;-80
2023/04/19 02:11:17;;;;;;;7.30;5.90;;;;;;;8.09;94.98;100970.41;106255;1257;100082;-80
2023/04/19 02:14:02;;;;;;;7.20;5.40;;;;;;;8.09;94.89;100972.02;106135;1261;99423;-79
2023/04/19 02:16:48;;;;;;;8.80;6.70;;;;;;;8.06;94.94;100969.46;105467;1261;97986;-79
2023/04/19 02:19:33;;;;;;;8.00;5.90;;;;;;;8.04;95.08;100962.95;105559;1258;99621;-77
2023/04/19 02:22:19;;;;;;;6.60;5.80;;;;;;;8.03;95.03;100962.67;105627;1257;102895;-79
2023/04/19 02:25:06;;;;;;;7.30;5.90;;;;;;;8.01;94.92;100960.03;106302;1257;101032;-82
2023/04/19 02:27:52;;;;;;;8.00;6.20;;;;;;;7.99;94.99;100956.67;106223;1259;97960;-78
2023/04/19 02:30:38;;;;;;;8.00;6.10;;;;;;;8.01;95.08;100956.27;105667;1261;97962;-80
2023/04/19 02:33:25;;;;;;;6.90;6.20;;;;;;;8.02;95.06;100951.45;106133;1258;97922;-79
2023/04/19 02:36:11;;;;;;;8.40;6.00;;;;;;;8.01;95.17;100943.34;105590;1260;101371;-78
2023/04/19 02:38:58;;;;;;;8.30;6.50;;;;;;;8.01;95.15;100946.50;106118;1261;100521;-80
2023/04/19 02:41:43;;;;;;;9.20;6.20;;;;;;;8.00;95.30;100942.88;106092;1258;106319;-79
2023/04/19 02:44:30;;;;;;;8.80;6.80;;;;;;;8.00;95.05;100942.91;105627;1260;97968;-79
2023/04/19 02:47:15;;;;;;;8.30;6.00;;;;;;;7.97;94.97;100936.95;105889;1261;98004;-80
2023/04/19 02:50:00;;;;;;;7.70;5.80;;;;;;;7.97;95.12;100931.91;106261;1256;101465;-80
2023/04/19 02:52:46;;;;;;;8.50;5.40;;;;;;;7.96;94.99;100931.61;106272;1261;99870;-80
2023/04/19 02:55:32;;;;;;;7.30;6.20;;;;;;;7.95;95.14;100924.05;106319;1257;99031;-80
2023/04/19 02:58:29;;;;;;;9.00;6.50;;;;;;;7.95;95.15;100919.24;106187;1261;97932;-78
2023/04/19 03:01:21;;;;;;;7.90;6.10;;;;;;;7.95;95.25;100915.77;105444;1257;98958;-79
2023/04/19 03:04:06;;;;;;;6.20;5.50;;;;;;;7.93;95.25;100913.96;105560;1256;101333;-78
2023/04/19 03:06:52;;;;;;;7.00;6.30;;;;;;;7.91;95.00;100908.56;105511;1259;99112;-80
2023/04/19 03:09:37;;;;;;;8.40;6.70;;;;;;;7.87;95.22;100906.77;105546;1257;98040;-81
2023/04/19 03:12:23;;;;;;;8.20;5.80;;;;;;;7.86;95.24;100906.17;106393;1258;97962;-83
2023/04/19 03:15:09;;;;;;;10.40;6.00;;;;;;;7.86;95.09;100906.21;106254;1256;98476;-80
2023/04/19 03:17:54;;;;;;;9.10;7.40;;;;;;;7.86;95.30;100904.45;106230;1257;102907;-81
2023/04/19 03:20:40;;;;;;;11.40;6.10;;;;;;;7.86;95.19;100901.40;106283;1257;100547;-80
2023/04/19 03:23:26;;;;;;;10.30;6.40;;;;;;;7.85;95.19;100898.23;105750;1258;97971;-79
2023/04/19 03:26:15;;;;;;;7.10;6.20;;;;;;;7.86;95.23;100894.68;105857;1258;97974;-79
2023/04/19 03:29:03;;;;;;;8.90;6.30;;;;;;;7.86;95.31;100891.48;106298;1257;98524;-79
2023/04/19 03:31:59;;;;;;;7.80;6.40;;;;;;;7.86;95.44;100891.45;106213;1257;102798;-81
2023/04/19 03:34:46;;;;;;;7.90;6.60;;;;;;;7.85;95.48;100887.94;106502;1258;101038;-80
2023/04/19 03:37:34;;;;;;;8.90;5.70;;;;;;;7.86;95.53;100890.75;106349;1257;98024;-80
2023/04/19 03:40:20;;;;;;;7.90;6.10;;;;;;;7.86;95.14;100890.34;106325;1257;99141;-80
2023/04/19 03:43:06;;;;;;;7.50;5.70;;;;;;;7.85;95.51;100883.67;105511;1258;98737;-82
2023/04/19 03:45:53;;;;;;;8.90;6.40;;;;;;;7.85;95.40;100882.48;106499;1258;101340;-80
2023/04/19 03:48:39;;;;;;;7.10;6.40;;;;;;;7.83;95.54;100883.23;106538;1258;99074;-80
2023/04/19 03:51:26;;;;;;;9.00;6.20;;;;;;;7.82;95.43;100881.34;106361;1257;98986;-80
2023/04/19 03:54:12;;;;;;;9.90;6.40;;;;;;;7.84;95.67;100881.21;105857;1261;97972;-78
2023/04/19 03:56:58;;;;;;;7.70;5.80;;;;;;;7.82;95.60;100877.80;105818;1257;98699;-80
2023/04/19 03:59:44;;;;;;;7.40;6.00;;;;;;;7.81;95.57;100872.72;105923;1257;102511;-81
2023/04/19 04:02:30;;;;;;;8.30;6.40;;;;;;;7.81;95.85;100874.69;105748;1258;99751;-79
2023/04/19 04:05:15;;;;;;;10.70;6.40;;;;;;;7.82;95.86;100875.67;106322;1257;97998;-81
2023/04/19 04:08:01;;;;;;;11.20;6.50;;;;;;;7.83;95.65;100872.06;106325;1261;98036;-80
2023/04/19 04:10:46;;;;;;;9.70;6.60;;;;;;;7.81;95.70;100870.43;105875;1257;97898;-79
2023/04/19 04:13:32;;;;;;;8.70;6.50;;;;;;;7.80;95.80;100868.95;106530;1258;101320;-80
2023/04/19 04:16:24;;;;;;;10.60;6.20;;;;;;;7.82;95.76;100870.03;106329;1257;99083;-80
2023/04/19 04:19:11;;;;;;;11.30;6.80;;;;;;;7.82;95.82;100871.60;105541;1259;98038;-79
2023/04/19 04:21:58;;;;;;;9.00;5.70;;;;;;;7.82;95.89;100867.50;105816;1257;97965;-79
2023/04/19 04:24:44;;;;;;;7.50;6.50;;;;;;;7.81;95.91;100866.65;106419;1257;97785;-80
2023/04/19 04:27:41;;;;;;;10.10;6.10;;;;;;;7.80;95.93;100870.12;106032;1258;101301;-79
2023/04/19 04:30:33;;;;;;;8.50;5.80;;;;;;;7.81;96.09;100863.86;105575;1257;99125;-80
2023/04/19 04:33:26;;;;;;;9.10;6.50;;;;;;;7.82;96.12;100862.39;105730;1261;97939;-80
2023/04/19 04:36:13;;;;;;;7.40;6.10;;;;;;;7.78;96.00;100858.08;105693;1257;97896;-77
2023/04/19 04:39:00;;;;;;;10.10;6.50;;;;;;;7.76;95.94;100858.64;105588;1259;98467;-80
2023/04/19 04:41:48;;;;;;;9.10;7.50;;;;;;;7.74;95.97;100857.10;105603;1257;101342;-78
2023/04/19 04:44:35;;;;;;;6.60;5.70;;;;;;;7.71;96.20;100857.13;105503;1261;99099;-79
2023/04/19 04:47:20;;;;;;;7.60;5.60;;;;;;;7.71;96.25;100857.66;105683;1261;106354;-79
2023/04/19 04:50:10;;;;;;;7.90;6.00;;;;;;;7.67;96.31;100860.14;105561;1261;98052;-78
2023/04/19 04:52:56;;;;;;;8.00;6.40;;;;;;;7.66;96.61;100859.04;106110;1261;99160;-79
2023/04/19 04:55:46;;;;;;;8.00;6.10;;;;;;;7.66;96.76;100858.38;105444;1261;102623;-79
2023/04/19 04:58:32;;;;;;;7.40;5.90;;;;;;;7.64;96.66;100855.88;106337;1257;99711;-82
2023/04/19 05:01:22;;;;;;;7.30;6.10;;;;;;;7.61;96.91;100848.43;106300;1259;98015;-79
2023/04/19 05:04:08;;;;;;;7.90;6.50;;;;;;;7.57;97.10;100848.09;105800;1258;98023;-80
2023/04/19 05:06:53;;;;;;;8.00;6.50;;;;;;;7.54;97.19;100847.00;105795;1261;97857;-79
2023/04/19 05:09:44;;;;;;;;;;;;;;;7.53;97.47;100845.36;106066;1260;102073;-81
2023/04/19 05:12:32;;;;;;;7.50;6.30;;;;;;;7.52;97.78;100841.23;106334;1257;100314;-81
2023/04/19 05:15:19;;;;;;;9.40;6.40;;;;;;;7.49;97.91;100842.39;105943;1268;97950;-80
2023/04/19 05:18:08;;;;;;;7.80;6.30;;;;;;;7.44;98.07;100839.40;106528;1260;98060;-79
2023/04/19 05:20:56;;;;;;;7.90;6.30;;;;;;;7.42;98.41;100844.73;105914;1259;97892;-80
2023/04/19 05:23:43;;;;;;;7.80;6.60;;;;;;;7.42;98.65;100841.39;105874;1257;101368;-80
2023/04/19 05:26:31;;;;;;;8.80;6.80;;;;;;;7.41;98.87;100839.19;106298;1260;100328;-82
2023/04/19 05:29:17;;;;;;;9.00;6.80;;;;;;;7.39;99.14;100838.52;106360;1257;98827;-80
2023/04/19 05:32:09;;;;;;;8.20;7.30;;;;;;;7.39;99.47;100837.73;106352;1257;98765;-80
2023/04/19 05:35:01;;;;;;;8.00;6.10;;;;;;;7.40;99.65;100837.36;106475;1256;97848;-80
2023/04/19 05:37:47;;;;;;;8.60;6.90;;;;;;;7.37;99.82;100834.41;106433;1263;101321;-81
2023/04/19 05:40:34;;;;;;;8.60;7.00;;;;;;;7.33;99.89;100831.67;106482;1257;99253;-80
2023/04/19 05:43:20;;;;;;;11.10;5.90;;;;;;;7.31;99.97;100830.48;106393;1261;99074;-80
2023/04/19 05:46:06;;;;;;;8.00;6.40;;;;;;;7.29;99.99;100825.48;105989;1261;97944;-79
2023/04/19 05:48:51;;;;;;;9.50;6.80;;;;;;;7.28;100.00;100822.91;105727;1257;97963;-80
2023/04/19 05:51:56;;;;;;;10.10;7.50;;;;;;;7.27;100.00;100820.05;106299;1257;102076;-79
2023/04/19 05:54:48;;;;;;;7.70;6.30;;;;;;;7.23;100.00;100816.89;106470;1258;100003;-80
2023/04/19 05:57:34;;;;;;;10.60;8.00;;;;;;;7.20;100.00;100814.05;106130;1257;99640;-80
2023/04/19 06:00:20;;;;;;;9.70;7.10;;;;;;;7.16;100.00;100811.08;105799;1259;97962;-80
2023/04/19 06:03:11;;;;;;;9.60;7.10;;;;;;;7.14;100.00;100814.98;105609;1261;98036;-80
2023/04/19 06:05:58;;;;;;;7.10;6.40;;;;;;;7.12;100.00;100811.13;105781;1262;101449;-80
2023/04/19 06:08:44;;;;;;;8.10;7.20;;;;;;;7.12;100.00;100810.85;106560;1260;115572;-83
2023/04/19 06:11:29;;;;;;;7.90;6.80;;;;;;;7.12;100.00;100809.73;106308;1261;97893;-83
2023/04/19 06:14:14;;;;;;;8.00;6.90;;;;;;;7.12;100.00;100809.05;106424;1258;98044;-81
2023/04/19 06:17:00;;;;;;;8.50;6.90;;;;;;;7.11;100.00;100810.39;106396;1261;98582;-81
2023/04/19 06:19:45;;;;;;;8.50;7.00;;;;;;;7.10;100.00;100808.21;106351;1259;101343;-81
2023/04/19 06:22:31;;;;;;;8.10;7.30;;;;;;;7.11;100.00;100810.71;106058;1260;99735;-81
2023/04/19 06:25:16;;;;;;;8.80;7.30;;;;;;;7.12;100.00;100812.61;106428;1257;99421;-80
2023/04/19 06:28:05;;;;;;;10.10;7.30;;;;;;;7.11;100.00;100814.64;106424;1259;97884;-80
2023/04/19 06:30:50;;;;;;;8.90;7.30;;;;;;;7.09;100.00;100812.94;106299;1257;97910;-81
2023/04/19 06:33:36;;;;;;;9.70;7.40;;;;;;;7.07;100.00;100811.20;105887;1259;101353;-82
2023/04/19 06:36:21;;;;;;;8.70;7.10;;;;;;;7.06;100.00;100812.20;106421;1258;99262;-82
2023/04/19 06:39:07;;;;;;;8.40;6.80;;;;;;;7.07;100.00;100813.30;106439;1261;98670;-81
2023/04/19 06:41:52;;;;;;;8.20;7.30;;;;;;;7.08;100.00;100808.24;106173;1258;98029;-82
2023/04/19 06:44:38;;;;;;;8.50;7.10;;;;;;;7.09;100.00;100806.55;106274;1258;96521;-83
2023/04/19 06:47:23;;;;;;;11.90;7.30;;;;;;;7.09;100.00;100807.62;106184;1258;102653;-81
2023/04/19 06:50:10;;;;;;;9.40;7.30;;;;;;;7.09;100.00;100809.61;106394;1261;99149;-82
2023/04/19 06:52:55;;;;;;;10.70;7.50;;;;;;;7.10;100.00;100810.88;106216;1261;99512;-81
2023/04/19 06:55:41;;;;;;;11.90;8.00;;;;;;;7.14;100.00;100813.13;106308;1259;97950;-81
2023/04/19 06:58:27;;;;;;;9.60;8.20;;;;;;;7.17;100.00;100818.30;106353;1257;97902;-82
2023/04/19 07:01:13;;;;;;;12.00;8.70;;;;;;;7.21;100.00;100819.45;106413;1258;101902;-82
2023/04/19 07:04:00;;;;;;;10.00;7.40;;;;;;;7.22;100.00;100819.16;106727;1257;100069;-82
2023/04/19 07:06:48;;;;;;;9.80;8.20;;;;;;;7.22;100.00;100818.33;106716;1257;98936;-82
2023/04/19 07:09:33;;;;;;;11.60;8.20;;;;;;;7.20;100.00;100822.75;106425;1263;96241;-82
2023/04/19 07:12:19;;;;;;;11.60;8.40;;;;;;;7.21;100.00;100825.09;106292;1259;100134;-82
2023/04/19 07:15:05;;;;;;;10.70;8.30;;;;;;;7.26;100.00;100828.74;106281;1259;101328;-82
2023/04/19 07:17:50;;;;;;;9.70;8.20;;;;;;;7.30;100.00;100828.95;106119;1261;99208;-81
2023/04/19 07:20:36;;;;;;;12.00;8.00;;;;;;;7.34;100.00;100828.41;106293;1257;99088;-82
2023/04/19 07:23:22;;;;;;;11.60;8.50;;;;;;;7.36;100.00;100830.09;106525;1259;97920;-81
2023/04/19 07:26:07;;;;;;;11.80;9.10;;;;;;;7.41;100.00;100831.20;106167;1258;97952;-81
2023/04/19 07:28:52;;;;;;;9.90;8.40;;;;;;;7.44;100.00;100827.31;106251;1261;101489;-79
2023/04/19 07:31:38;;;;;;;10.90;7.90;;;;;;;7.45;100.00;100825.91;106269;1257;99133;-83
2023/04/19 07:34:28;;;;;;;11.80;8.50;;;;;;;7.46;100.00;100824.59;106702;1258;99033;-88
2023/04/19 07:37:16;;;;;;;13.00;9.50;;;;;;;7.47;100.00;100827.16;106549;1267;97956;-88
2023/04/19 07:40:02;;;;;;;10.80;8.80;;;;;;;7.49;100.00;100828.56;106424;1257;96952;-85
2023/04/19 07:42:48;;;;;;;10.80;8.50;;;;;;;7.51;100.00;100826.60;105956;1259;102037;-84
2023/04/19 07:45:34;;;;;;;12.90;8.50;;;;;;;7.53;100.00;100824.05;106422;1257;100329;-88
2023/04/19 07:48:20;;;;;;;11.60;7.80;;;;;;;7.58;100.00;100821.41;106445;1258;97944;-87
2023/04/19 07:51:16;;;;;;;9.50;8.10;;;;;;;7.61;100.00;100814.30;106306;1259;97959;-83
2023/04/19 07:54:04;;;;;;;11.70;9.50;;;;;;;7.66;100.00;100818.88;106392;1261;98426;-88
2023/04/19 07:56:50;;;;;;;11.70;9.10;;;;;;;7.71;100.00;100815.00;106463;1259;101309;-80
2023/04/19 07:59:35;;;;;;;12.30;9.20;;;;;;;7.74;100.00;100813.04;106634;1261;99086;-85
2023/04/19 08:02:20;;;;;;;11.70;8.40;;;;;;;7.78;100.00;100812.45;106632;1263;98302;-83
2023/04/19 08:05:07;;;;;;;11.50;8.30;;;;;;;7.78;100.00;100813.66;106817;1257;97983;-90
2023/04/19 08:07:53;;;;;;;12.20;9.30;;;;;;;7.82;100.00;100811.89;106031;1257;98499;-82
2023/04/19 08:10:39;;;;;;;12.90;9.30;;;;;;;7.86;100.00;100811.27;106204;1257;101440;-82
2023/04/19 08:13:24;;;;;;;11.10;9.40;;;;;;;7.90;100.00;100813.01;106432;1256;100902;-80
2023/04/19 08:16:09;;;;;;;12.60;10.30;;;;;;;7.92;100.00;100812.08;105729;1258;99323;-80
2023/04/19 08:18:55;;;;;;;13.10;9.70;;;;;;;7.94;100.00;100809.70;105979;1259;97904;-80
2023/04/19 08:21:40;;;;;;;13.50;9.90;;;;;;;7.95;100.00;100807.08;105979;1258;97946;-81
2023/04/19 08:24:26;;;;;;;15.20;11.00;;;;;;;7.95;100.00;100806.20;106154;1261;103058;-87
2023/04/19 08:27:14;;;;;;;11.90;9.80;;;;;;;7.98;100.00;100806.23;106122;1261;99832;-79
2023/04/19 08:29:59;;;;;;;16.80;12.10;;;;;;;8.02;100.00;100807.49;105989;1257;98033;-80
2023/04/19 08:32:45;;;;;;;17.00;12.80;;;;;;;8.08;100.00;100801.69;105999;1257;98736;-80
2023/04/19 08:35:30;;;;;;;17.60;13.40;;;;;;;8.14;100.00;100800.13;106063;1258;97905;-82
2023/04/19 08:38:16;;;;;;;17.90;13.90;;;;;;;8.20;100.00;100799.04;106222;1259;102260;-81
2023/04/19 08:41:01;;;;;;;17.10;14.20;;;;;;;8.26;100.00;100797.13;106507;1259;100353;-80
2023/04/19 08:43:50;;;;;;;17.20;14.30;;;;;;;8.27;100.00;100796.13;106419;1262;97862;-81
2023/04/19 08:46:36;;;;;;;22.90;14.50;;;;;;;8.25;100.00;100793.24;106449;1259;98864;-80
2023/04/19 08:49:35;;;;;;;18.00;14.40;;;;;;;8.24;100.00;100793.02;106009;1257;98433;-85
2023/04/19 08:52:23;;;;;;;19.10;14.70;;;;;;;8.22;100.00;100794.30;106443;1256;101287;-81
2023/04/19 08:55:09;;;;;;;21.60;14.20;;;;;;;8.22;100.00;100795.16;106378;1259;99081;-79
2023/04/19 08:57:56;;;;;;;22.50;15.40;;;;;;;8.23;100.00;100795.45;106674;1259;98963;-80
2023/04/19 09:00:41;;;;;;;17.70;14.70;;;;;;;8.25;100.00;100796.45;106469;1259;97978;-79
2023/04/19 09:03:27;;;;;;;18.20;15.40;;;;;;;8.30;100.00;100799.89;106241;1259;98579;-84
2023/04/19 09:06:13;;;;;;;22.90;16.00;;;;;;;8.34;100.00;100801.92;105989;1264;102595;-79
2023/04/19 09:09:15;;;;;;;18.20;15.10;;;;;;;8.37;100.00;100806.73;107192;1257;101649;-90
2023/04/19 09:12:01;;;;;;;18.10;14.90;;;;;;;8.41;100.00;100803.45;106275;1259;98065;-84
2023/04/19 09:14:47;;;;;;;19.30;15.30;;;;;;;8.42;100.00;100803.66;106022;1257;98077;-84
2023/04/19 09:17:35;;;;;;;21.70;15.40;;;;;;;8.43;100.00;100802.10;106334;1257;97996;-84
2023/04/19 09:20:35;;;;;;;21.20;14.60;;;;;;;8.46;100.00;100801.83;106143;1259;102164;-86
2023/04/19 09:23:20;;;;;;;19.30;15.10;;;;;;;8.50;100.00;100805.46;106112;1261;99330;-85
2023/04/19 09:26:06;;;;;;;19.50;15.80;;;;;;;8.57;100.00;100808.09;106130;1268;99256;-83
2023/04/19 09:28:57;;;;;;;22.50;17.90;;;;;;;8.64;100.00;100815.35;105885;1264;97950;-86
2023/04/19 09:31:56;;;;;;;39.50;28.40;;;;;;;8.73;100.00;100812.70;105985;1261;98597;-86
2023/04/19 09:34:59;;;;;;;30.30;21.10;;;;;;;8.85;100.00;100813.25;106220;1259;101348;-84
2023/04/19 09:38:00;;;;;;;22.70;17.90;;;;;;;9.01;100.00;100808.66;105991;1262;99073;-88
2023/04/19 09:40:46;;;;;;;24.30;17.90;;;;;;;9.15;100.00;100804.21;106024;1259;98065;-86
2023/04/19 09:43:32;;;;;;;19.40;16.10;;;;;;;9.30;100.00;100801.75;105939;1258;108788;-87
2023/04/19 09:46:31;;;;;;;19.50;15.10;;;;;;;9.41;100.00;100803.94;106080;1258;97930;-85
2023/04/19 09:49:22;;;;;;;23.30;16.80;;;;;;;9.46;100.00;100808.29;106288;1259;101471;-84
2023/04/19 09:52:09;;;;;;;18.00;15.50;;;;;;;9.55;100.00;100800.83;106238;1258;99045;-84
2023/04/19 09:54:57;;;;;;;18.40;14.20;;;;;;;9.64;100.00;100804.77;106015;1261;97966;-84
2023/04/19 09:57:42;;;;;;;17.70;14.70;;;;;;;9.70;100.00;100809.37;106021;1259;97890;-86
2023/04/19 10:00:27;;;;;;;20.40;14.70;;;;;;;9.76;100.00;100810.33;106033;1261;98472;-82
2023/04/19 10:03:15;;;;;;;18.70;13.30;;;;;;;9.80;100.00;100808.91;106065;1257;101491;-85
2023/04/19 10:06:02;;;;;;;18.10;13.70;;;;;;;9.85;100.00;100805.70;105862;1261;99220;-86
2023/04/19 10:08:49;;;;;;;19.50;14.50;;;;;;;9.90;100.00;100806.17;106156;1257;99128;-82
2023/04/19 10:11:39;;;;;;;20.20;13.40;;;;;;;9.93;100.00;100806.58;106180;1263;98056;-83
2023/04/19 10:14:26;;;;;;;15.10;12.10;;;;;;;9.92;100.00;100810.73;106082;1260;98476;-82
2023/04/19 10:17:12;;;;;;;15.10;12.00;;;;;;;9.93;100.00;100809.06;106007;1257;102605;-85
2023/04/19 10:20:08;;;;;;;16.90;13.10;;;;;;;9.93;100.00;100813.10;105981;1261;99083;-83
2023/04/19 10:22:54;;;;;;;15.20;12.20;;;;;;;9.94;100.00;100812.36;105758;1263;99027;-83
2023/04/19 10:25:45;;;;;;;17.30;13.00;;;;;;;9.95;100.00;100808.84;105909;1261;98020;-83
2023/04/19 10:28:34;;;;;;;14.70;11.60;;;;;;;9.96;100.00;100809.58;106047;1261;98478;-83
2023/04/19 10:31:22;;;;;;;15.70;12.30;;;;;;;9.96;100.00;100813.15;105870;1258;101449;-84
2023/04/19 10:34:08;;;;;;;13.00;11.50;;;;;;;9.97;100.00;100816.73;106297;1261;100509;-82
2023/04/19 10:36:56;;;;;;;14.40;11.20;;;;;;;9.98;100.00;100815.91;106102;1261;99002;-83
2023/04/19 10:39:43;;;;;;;13.30;11.50;;;;;;;10.00;100.00;100815.38;106016;1259;97845;-85
2023/04/19 10:43:07;;;;;;;15.50;11.70;;;;;;;10.01;100.00;100820.24;106004;1257;98593;-82
2023/04/19 10:45:53;;;;;;;15.50;11.50;;;;;;;10.01;100.00;100826.63;105982;1261;101342;-85
2023/04/19 10:48:52;;;;;;;17.80;12.00;;;;;;;10.02;100.00;100823.98;105987;1261;99271;-85
2023/04/19 10:51:42;;;;;;;14.80;11.70;;;;;;;10.05;100.00;100824.52;105918;1259;98314;-84
2023/04/19 10:54:36;;;;;;;18.90;14.50;;;;;;;10.06;100.00;100826.57;105670;1265;98039;-84
2023/04/19 10:57:24;;;;;;;14.50;11.30;;;;;;;10.08;100.00;100833.29;106205;1257;97974;-85
2023/04/19 11:00:20;;;;;;;16.30;12.50;;;;;;;10.11;100.00;100836.64;105867;1263;102628;-85
2023/04/19 11:03:43;;;;;;;14.10;11.00;;;;;;;10.12;100.00;100837.27;106099;1264;99284;-86
2023/04/19 11:06:29;;;;;;;14.90;11.10;;;;;;;10.12;100.00;100832.38;106083;1260;97987;-85
2023/04/19 11:09:23;;;;;;;15.80;12.00;;;;;;;10.14;100.00;100838.95;106029;1263;97793;-83
2023/04/19 11:12:11;;;;;;;14.20;11.70;;;;;;;10.14;100.00;100838.26;105904;1261;98387;-83
2023/04/19 11:14:59;;;;;;;14.10;11.50;;;;;;;10.12;100.00;100836.83;105820;1258;101400;-83
2023/04/19 11:17:50;;;;;;;15.00;12.70;;;;;;;10.11;100.00;100836.27;105869;1265;100639;-82
2023/04/19 11:20:36;;;;;;;16.20;12.00;;;;;;;10.11;100.00;100841.21;106035;1257;99311;-84
2023/04/19 11:23:21;;;;;;;17.20;12.10;;;;;;;10.11;100.00;100843.25;106011;1264;97907;-84
2023/04/19 11:26:10;;;;;;;19.70;12.20;;;;;;;10.12;100.00;100843.05;106088;1259;98083;-84
2023/04/19 11:28:56;;;;;;;16.00;12.90;;;;;;;10.14;100.00;100843.08;106093;1261;101388;-84
2023/04/19 11:31:45;;;;;;;15.50;12.20;;;;;;;10.16;100.00;100842.63;105976;1259;99169;-84
2023/04/19 11:34:38;;;;;;;15.60;12.10;;;;;;;10.17;100.00;100842.31;106160;1257;98429;-84
2023/04/19 11:37:23;;;;;;;14.90;11.80;;;;;;;10.18;100.00;100840.39;105929;1258;97971;-83
2023/04/19 11:40:15;;;;;;;15.30;11.60;;;;;;;10.21;100.00;100839.57;105953;1257;98093;-81
2023/04/19 11:43:02;;;;;;;15.50;11.50;;;;;;;10.24;100.00;100839.86;106045;1261;102366;-82
2023/04/19 11:45:47;;;;;;;13.60;11.70;;;;;;;10.29;100.00;100843.70;106022;1257;99335;-82
2023/04/19 11:48:33;;;;;;;13.50;10.60;;;;;;;10.33;100.00;100843.10;105981;1263;98737;-83
2023/04/19 11:51:19;;;;;;;13.20;10.90;;;;;;;10.35;100.00;100841.45;105935;1258;98045;-84
2023/04/19 11:54:13;;;;;;;14.50;11.40;;;;;;;10.33;100.00;100845.78;105931;1258;98497;-83
2023/04/19 11:57:01;;;;;;;15.10;11.30;;;;;;;10.34;100.00;100843.16;106102;1259;102666;-83
2023/04/19 12:00:04;;;;;;;15.40;11.90;;;;;;;10.38;100.00;100845.21;106188;1259;100341;-83
2023/04/19 12:02:58;;;;;;;13.80;11.40;;;;;;;10.43;100.00;100845.36;106016;1261;98953;-83
2023/04/19 12:05:55;;;;;;;13.40;10.70;;;;;;;10.47;100.00;100844.86;106049;1261;98105;-83
2023/04/19 12:08:49;;;;;;;13.60;10.90;;;;;;;10.53;100.00;100839.95;106243;1261;97878;-83
2023/04/19 12:11:48;;;;;;;13.30;10.40;;;;;;;10.59;100.00;100840.50;106027;1262;101321;-83
2023/04/19 12:14:35;;;;;;;14.70;10.40;;;;;;;10.68;100.00;100839.21;105831;1269;100902;-82
2023/04/19 12:17:21;;;;;;;12.80;10.50;;;;;;;10.77;100.00;100836.92;105902;1264;98166;-84
2023/04/19 12:20:07;;;;;;;14.30;10.70;;;;;;;10.83;100.00;100835.58;106271;1261;97961;-82
2023/04/19 12:22:52;;;;;;;16.10;11.40;;;;;;;10.93;100.00;100835.89;106131;1262;98089;-83
2023/04/19 12:25:38;;;;;;;15.50;11.50;;;;;;;11.03;100.00;100838.52;105999;1264;101382;-82
2023/04/19 12:28:24;;;;;;;17.50;11.90;;;;;;;11.13;100.00;100835.77;105983;1265;100491;-84
2023/04/19 12:31:09;;;;;;;17.60;11.40;;;;;;;11.30;100.00;100834.40;105939;1262;97963;-83
2023/04/19 12:33:56;;;;;;;14.20;10.40;;;;;;;11.42;100.00;100828.63;105923;1263;97958;-82
2023/04/19 12:36:41;;;;;;;14.30;9.90;;;;;;;11.48;100.00;100831.44;105820;1257;97904;-83
2023/04/19 12:39:41;;;;;;;12.70;10.20;;;;;;;11.52;99.88;100835.15;106184;1258;102671;-85
2023/04/19 12:42:30;;;;;;;13.00;8.80;;;;;;;11.66;99.99;100836.13;105931;1261;100346;-83
2023/04/19 12:45:17;;;;;;;13.10;9.20;;;;;;;11.76;99.03;100832.75;106143;1258;97866;-82